AirNav   Duncan Aviation - Near you to keep you flying
 
 1016 users online  

77F Winters Municipal Airport
Winters, Texas, USA

GOING TO WINTERS?


FAA INFORMATION EFFECTIVE 01 DECEMBER 2022

Location

FAA Identifier: 77F
Lat/Long: 31-56-49.8991N 099-59-09.0602W
31-56.831652N 099-59.151003W
31.9471942,-99.9858501
(estimated)
Elevation: 1871 ft. / 570.3 m (surveyed)
Variation: 08E (1980)
From city: 2 miles SW of WINTERS, TX
Time zone: UTC -6 (UTC -5 during Daylight Saving Time)
Zip code: 79567

Airport Operations

Airport use: Open to the public
Control tower: no
ARTCC: FORT WORTH CENTER
FSS: SAN ANGELO FLIGHT SERVICE STATION
NOTAMs facility: SJT (NOTAM-D service available)
Attendance: UNATNDD
Wind indicator: lighted
Segmented circle: yes
Lights: SS-SR
Beacon: white-green (lighted land airport)
Operates sunset to sunrise.

Airport Communications

CTAF: 122.9
ABILENE APPROACH: 127.2 [OPR 1200-0200Z++ MON-FRI; 1800-2300Z++ SUN; CLSD SAT AND HOL, OT CTC FORT WORTH CENTER 133.5 350.35.]
ABILENE DEPARTURE: 127.2 [OPR 1200-0200Z++ MON-FRI; 1800-2300Z++ SUN; CLSD SAT AND HOL, OT CTC FORT WORTH CENTER 133.5 350.35.]

Nearby radio navigation aids

VOR radial/distance  VOR name  Freq  Var
TQAr196/19.3TUSCOLA VOR/DME111.6010E
ABIr181/32.6ABILENE VORTAC113.7010E

Airport Services

Parking: tiedowns

Runway Information

Runway 17/35

Dimensions: 3204 x 50 ft. / 977 x 15 m
Surface: asphalt, in fair condition
Weight bearing capacity: 
Single wheel: 12.0
Runway edge lights: low intensity
RUNWAY 17  RUNWAY 35
Latitude: 31-57.095873N31-56.567430N
Longitude: 099-59.148910W099-59.153095W
Elevation: 1865.5 ft.1871.0 ft.
Traffic pattern: leftleft
Runway heading: 172 magnetic, 180 true352 magnetic, 000 true
Markings: nonprecision, in poor conditionnonprecision, in poor condition
Touchdown point: yes, no lightsyes, no lights
Obstructions: 5 ft. fence, 201 ft. from runway, 148 ft. right of centerline
5 FT FENCE, 0-199 FT DSTC, 148 FT RIGHT.
4 ft. fence, 201 ft. from runway, 180 ft. left and right of centerline
4 FT FENCE 0-199 FT DSTC, 200 FT LEFT.

Airport Ownership and Management from official FAA records

Ownership: Publicly-owned
Owner: CITY OF WINTERS
310 S MAIN
WINTERS, TX 79567
Phone 325-754-4424
Manager: STEVE BALLARD
P.O. BOX 63
WINTERS, TX 79567
Phone 325-365-6333

Airport Operational Statistics

Aircraft based on the field: 7
Single engine airplanes: 7
    
Aircraft operations: avg 40/week *
67% local general aviation
33% transient general aviation
* for 12-month period ending 23 May 2021

Additional Remarks

4 FT PROPERTY LINE FENCE 163-200 FT WEST OF RWY.
PARL TXY FM RAMP SOUTH, GRAVEL WITH POTHOLES, UNUSBL.
FOR CD CTC FORT WORTH ARTCC AT 817-858-7584.

Instrument Procedures

NOTE: All procedures below are presented as PDF files. If you need a reader for these files, you should download the free Adobe Reader.

NOT FOR NAVIGATION. Please procure official charts for flight.
FAA instrument procedures published for use from 01 December 2022 at 0901Z to 29 December 2022 at 0900z.

 
IAPs - Instrument Approach Procedures
RNAV (GPS) RWY 17   download (157KB)
RNAV (GPS) RWY 35   download (185KB)
NOTE: Special Take-Off Minimums/Departure Procedures apply   download (107KB)

Other nearby airports with instrument procedures:

E30 - Bruce Field Airport (16 nm S)
KDYS - Dyess Air Force Base (29 nm N)
KCOM - Coleman Municipal Airport (30 nm E)
KABI - Abilene Regional Airport (32 nm NE)
KSWW - Avenger Field Airport (40 nm NW)
 
Loc | Ops | Rwys | IFR | FBO | Links
Com | Nav | Svcs | Stats | Notes
Area around 77F (Winters Municipal Airport)
 
Road maps at: MapQuest Bing Google
 
Aerial photo
WARNING: Photo may not be current or correct
Aerial photo of 77F (Winters Municipal Airport)
Taken in December 2004

Do you have a better or more recent aerial photo of Winters Municipal Airport that you would like to share? If so, please send us your photo.

 
Sectional chart

 
Airport distance calculator
Flying to Winters Municipal Airport? Find the distance to fly.

From to 77F

Sunrise and sunset
Times for 04-Dec-2022
 Local
(UTC-6)
 Zulu
(UTC)
Morning civil twilight06:5912:59
Sunrise07:2613:26
Sunset17:3423:34
Evening civil twilight18:0100:01

Current date and time
Zulu (UTC)  04-Dec-2022 16:07:22
Local (UTC-6)  04-Dec-2022 10:07:22
 
METAR
KDYS 
29nm N 
041555Z AUTO 17009KT 10SM BKN042 BKN130 11/M04 A3023 RMK AO2 SLP235 T01051036
KCOM 
30nm E 
041555Z AUTO 21008KT 10SM SCT028 OVC046 10/00 A3030 RMK AO2 T01000002
KABI 
32nm NE 
041552Z 20010KT 10SM BKN043 10/M01 A3026 RMK AO2 SLP245 T01001006 $
KSWW 
40nm NW 
041555Z AUTO 23011KT 10SM CLR 11/M01 A3029 RMK AO2 T01111010
KSJT 
44nm SW 
041551Z 20005KT 10SM OVC021 09/00 A3029 RMK AO2 SLP260 T00940000
TAF
KDYS 
29nm N 
041400Z 0414/0520 VRB06KT 9999 OVC030 QNH3008INS BECMG 0419/0420 VRB06KT 9999 SCT030 QNH2998INS BECMG 0505/0506 21015G25KT 9999 OVC010 QNH2988INS BECMG 0510/0511 22010G15KT 9999 SCT015 BKN100 QNH2988INS BECMG 0516/0517 24012G18KT 9999 SCT150 BKN200 QNH2981INS TX19/0420Z TN07/0414Z
KABI 
32nm NE 
041120Z 0412/0512 VRB04KT P6SM OVC030 FM041500 20007KT P6SM BKN060 FM050600 20011KT P6SM OVC007
NOTAMs
Click for the latest NOTAMs
NOTAMs are issued by the DoD/FAA and will open in a separate window not controlled by AirNav.

 

 
 

Would you like to see your business listed on this page?

 If your business provides an interesting product or service to pilots, flight crews, aircraft, or users of the Winters Municipal Airport, you should consider listing it here.  To start the listing process, click on the button below
 
Add a business
 

Other Pages about Winters Municipal Airport

Update a link
 
Copyright © AirNav, LLC. All rights reserved. Privacy Policy  Contact